Time;durP1;ratioP1;P1;durP2;ratioP2;P2;SDS_P1;SDS_P2;PMS_P1;PMS_P2;Temp;Humidity;BMP_temperature;BMP_pressure;BME280_temperature;BME280_humidity;BME280_pressure;Samples;Min_cycle;Max_cycle;Signal;HPM_P1;HPM_P2
2021/12/16 00:08:32;;;;;;;29.27;14.15;;;12.10;99.90;;;;;;6345218;22;20028;-71
2021/12/16 00:33:14;;;;;;;26.23;14.27;;;12.30;99.90;;;;;;6344597;22;20063;-72
2021/12/16 00:35:47;;;;;;;23.00;14.02;;;12.30;99.90;;;;;;6343552;22;20441;-71
2021/12/16 00:38:13;;;;;;;24.42;14.52;;;12.30;99.90;;;;;;6311958;22;19999;-72
2021/12/16 00:40:43;;;;;;;25.00;13.75;;;12.30;99.90;;;;;;6340357;22;20002;-70
2021/12/16 00:43:33;;;;;;;24.60;13.32;;;12.30;99.90;;;;;;6342527;22;20007;-72
2021/12/16 00:54:25;;;;;;;25.63;13.35;;;12.30;99.90;;;;;;6335805;22;20021;-71
2021/12/16 00:56:56;;;;;;;24.00;13.60;;;12.30;99.90;;;;;;6333660;22;20049;-70
2021/12/16 00:59:24;;;;;;;26.88;13.15;;;12.20;99.90;;;;;;6339384;22;20014;-71
2021/12/16 01:02:07;;;;;;;22.23;13.75;;;12.30;99.90;;;;;;6339794;22;20074;-71
2021/12/16 01:40:17;;;;;;;40.03;19.30;;;12.00;99.90;;;;;;6336470;22;20516;-70
2021/12/16 01:50:36;;;;;;;39.08;19.58;;;11.80;99.90;;;;;;6340290;22;19999;-71
2021/12/16 01:53:36;;;;;;;36.25;18.75;;;11.90;99.90;;;;;;6339324;22;20002;-70
2021/12/16 01:56:16;;;;;;;35.92;17.42;;;12.00;99.90;;;;;;6339962;22;20324;-72
2021/12/16 01:58:43;;;;;;;33.95;18.38;;;11.90;99.90;;;;;;6338996;22;20414;-70
2021/12/16 02:03:51;;;;;;;33.60;18.13;;;11.80;99.90;;;;;;6340573;22;20007;-70
2021/12/16 02:09:17;;;;;;;36.88;16.73;;;11.80;99.90;;;;;;6340572;22;20068;-70
2021/12/16 02:11:54;;;;;;;33.28;17.30;;;11.80;99.90;;;;;;6338892;22;20002;-70
2021/12/16 02:34:03;;;;;;;35.20;20.00;;;11.50;99.90;;;;;;6341289;22;19998;-70
2021/12/16 02:36:26;;;;;;;37.13;19.98;;;11.50;99.90;;;;;;6340183;22;20094;-70
2021/12/16 02:39:07;;;;;;;34.83;18.20;;;11.70;99.90;;;;;;6344172;22;20007;-71
2021/12/16 02:41:33;;;;;;;31.48;17.58;;;11.60;99.90;;;;;;6345143;22;20002;-72
2021/12/16 02:44:22;;;;;;;33.38;18.48;;;11.70;99.90;;;;;;6345494;22;20003;-71
2021/12/16 02:49:44;;;;;;;32.67;18.30;;;11.80;99.90;;;;;;6305984;22;20026;-72
2021/12/16 02:52:11;;;;;;;33.75;19.23;;;11.70;99.90;;;;;;6339865;22;20070;-70
2021/12/16 02:54:37;;;;;;;29.83;17.65;;;11.70;99.90;;;;;;6342348;22;20003;-71
2021/12/16 02:57:03;;;;;;;30.33;17.50;;;11.90;99.90;;;;;;6340800;22;20070;-71
2021/12/16 02:59:30;;;;;;;32.22;16.90;;;12.00;99.90;;;;;;6339356;22;20009;-69
2021/12/16 03:02:05;;;;;;;33.72;17.65;;;11.90;99.90;;;;;;6310495;22;19995;-69
2021/12/16 03:04:31;;;;;;;30.38;17.33;;;11.90;99.90;;;;;;6338476;22;19995;-70
2021/12/16 03:06:59;;;;;;;30.25;17.50;;;11.70;99.90;;;;;;6337749;22;20010;-71
2021/12/16 03:10:14;;;;;;;29.17;17.35;;;11.80;99.90;;;;;;6338231;22;20010;-70
2021/12/16 03:15:10;;;;;;;35.45;17.83;;;11.80;99.90;;;;;;6337525;22;20006;-72
2021/12/16 03:17:46;;;;;;;;;;;11.70;99.90;;;;;;6339365;22;20426;-71
2021/12/16 03:20:22;;;;;;;32.22;17.63;;;11.70;99.90;;;;;;6336989;22;19898;-71
2021/12/16 03:28:17;;;;;;;31.33;17.73;;;11.70;99.90;;;;;;6337973;22;20022;-70
2021/12/16 03:36:14;;;;;;;30.58;17.60;;;11.60;99.90;;;;;;6340933;22;20041;-70
2021/12/16 03:38:43;;;;;;;35.42;17.55;;;11.70;99.90;;;;;;6341014;22;19999;-70
2021/12/16 03:41:09;;;;;;;34.92;17.48;;;11.60;99.90;;;;;;6342256;22;20002;-70
2021/12/16 03:43:37;;;;;;;32.67;18.23;;;11.50;99.90;;;;;;6339905;22;20006;-70
2021/12/16 03:48:53;;;;;;;35.25;18.48;;;11.60;99.90;;;;;;6340300;22;20128;-70
2021/12/16 03:51:34;;;;;;;38.47;18.65;;;11.60;99.90;;;;;;6338802;22;20056;-70
2021/12/16 03:54:10;;;;;;;33.13;17.58;;;11.50;99.90;;;;;;6338995;22;19998;-70
2021/12/16 03:56:37;;;;;;;36.95;17.90;;;11.60;99.90;;;;;;6339271;22;20018;-70
2021/12/16 03:59:05;;;;;;;33.47;17.30;;;11.50;99.90;;;;;;6337639;22;20369;-71
2021/12/16 04:01:36;;;;;;;35.97;17.02;;;11.50;99.90;;;;;;6338088;22;20417;-70
2021/12/16 04:04:03;;;;;;;31.65;17.05;;;11.60;99.90;;;;;;6339417;22;19995;-71
2021/12/16 04:06:31;;;;;;;27.48;16.60;;;11.70;99.90;;;;;;6334299;22;20003;-70
2021/12/16 04:08:57;;;;;;;31.77;16.80;;;11.70;99.90;;;;;;6310429;22;20034;-72
2021/12/16 04:11:32;;;;;;;31.58;16.70;;;11.80;99.90;;;;;;6336902;22;20021;-69
2021/12/16 04:14:00;;;;;;;28.35;16.27;;;11.60;99.90;;;;;;6339526;22;20014;-70
2021/12/16 04:16:30;;;;;;;31.67;16.20;;;11.70;99.90;;;;;;6339040;22;20003;-71
2021/12/16 04:18:58;;;;;;;47.45;17.05;;;11.70;99.90;;;;;;6341129;22;20005;-70
2021/12/16 04:21:26;;;;;;;29.30;16.85;;;11.60;99.90;;;;;;6320328;22;20050;-70
2021/12/16 04:23:54;;;;;;;29.98;16.05;;;11.60;99.90;;;;;;6318486;22;20003;-70
2021/12/16 04:26:20;;;;;;;28.38;15.90;;;11.60;99.90;;;;;;6338564;22;20003;-71
2021/12/16 04:28:46;;;;;;;34.05;16.00;;;11.80;99.90;;;;;;6337732;22;19998;-70
2021/12/16 04:31:12;;;;;;;33.22;16.67;;;11.80;99.90;;;;;;6337799;22;19994;-72
2021/12/16 04:33:39;;;;;;;35.28;18.05;;;11.80;99.90;;;;;;6337083;22;20002;-72
2021/12/16 04:36:10;;;;;;;30.92;17.17;;;11.60;99.90;;;;;;6338683;22;20022;-70
2021/12/16 04:38:38;;;;;;;31.95;17.60;;;11.40;99.90;;;;;;6309342;22;20279;-71
2021/12/16 04:41:11;;;;;;;30.27;18.02;;;11.30;99.90;;;;;;6337348;22;20450;-71
2021/12/16 04:43:44;;;;;;;30.73;17.33;;;11.30;99.90;;;;;;6310882;22;20032;-70
2021/12/16 04:46:15;;;;;;;25.70;16.20;;;11.30;99.90;;;;;;6337844;22;20064;-71
2021/12/16 04:48:44;;;;;;;29.88;16.25;;;11.30;99.90;;;;;;6339154;22;20055;-70
2021/12/16 04:51:11;;;;;;;30.20;16.77;;;11.40;99.90;;;;;;6338762;22;20002;-70
2021/12/16 04:53:38;;;;;;;30.88;15.85;;;11.50;99.90;;;;;;6337804;22;20010;-69
2021/12/16 04:56:06;;;;;;;30.25;16.48;;;11.40;99.90;;;;;;6338709;22;20110;-69
2021/12/16 04:58:32;;;;;;;27.08;15.95;;;11.20;99.90;;;;;;6338780;22;20324;-70
2021/12/16 05:00:58;;;;;;;30.27;15.23;;;11.40;99.90;;;;;;6310080;22;20002;-70
2021/12/16 05:03:25;;;;;;;33.15;15.65;;;11.40;99.90;;;;;;6310974;22;20010;-72
2021/12/16 05:05:52;;;;;;;24.65;15.10;;;11.50;99.90;;;;;;6338430;22;20009;-71
2021/12/16 05:08:17;;;;;;;24.88;14.65;;;11.40;99.90;;;;;;6339448;22;20006;-70
2021/12/16 05:10:45;;;;;;;31.38;15.23;;;11.40;99.90;;;;;;6337257;22;20021;-70
2021/12/16 05:13:10;;;;;;;34.17;14.43;;;11.40;99.90;;;;;;6337627;22;19999;-70
2021/12/16 05:15:39;;;;;;;29.60;14.90;;;11.30;99.90;;;;;;6338474;22;20007;-70
2021/12/16 05:18:12;;;;;;;28.77;15.15;;;11.40;99.90;;;;;;6338661;22;20018;-70
2021/12/16 05:20:42;;;;;;;21.63;13.80;;;11.40;99.90;;;;;;6341319;22;20064;-70
2021/12/16 05:28:22;;;;;;;26.60;14.43;;;11.50;99.90;;;;;;6338891;22;20052;-72
2021/12/16 05:30:48;;;;;;;26.48;14.65;;;11.50;99.90;;;;;;6338123;22;20048;-69
2021/12/16 05:33:15;;;;;;;30.13;14.65;;;11.40;99.90;;;;;;6336519;22;20005;-70
2021/12/16 05:35:43;;;;;;;19.98;12.63;;;11.50;99.90;;;;;;6338790;22;19998;-71
2021/12/16 05:38:09;;;;;;;23.70;13.57;;;11.50;99.90;;;;;;6338994;22;19998;-71
2021/12/16 05:40:36;;;;;;;42.17;14.43;;;11.40;99.90;;;;;;6337788;22;20025;-71
2021/12/16 05:43:04;;;;;;;;;;;11.40;99.90;;;;;;6341000;22;19995;-70
2021/12/16 05:45:30;;;;;;;28.20;14.10;;;11.40;99.90;;;;;;6337765;22;19914;-69
2021/12/16 05:47:59;;;;;;;24.45;13.18;;;11.30;99.90;;;;;;6339067;22;20003;-71
2021/12/16 05:50:26;;;;;;;24.05;13.98;;;11.30;99.90;;;;;;6338190;22;20073;-70
2021/12/16 05:52:52;;;;;;;26.90;13.80;;;11.30;99.90;;;;;;6340374;22;20135;-70
2021/12/16 05:55:19;;;;;;;27.88;15.18;;;11.30;99.90;;;;;;6339032;22;20023;-70
2021/12/16 05:57:46;;;;;;;23.50;13.80;;;11.20;99.90;;;;;;6338288;22;20326;-70
2021/12/16 06:00:26;;;;;;;26.20;13.57;;;11.10;99.90;;;;;;6337453;22;20002;-70
2021/12/16 06:02:52;;;;;;;26.98;12.93;;;11.30;99.90;;;;;;6338451;22;19999;-70
2021/12/16 06:05:17;;;;;;;;;;;11.30;99.90;;;;;;6337442;22;20048;-70
2021/12/16 06:07:44;;;;;;;24.17;13.15;;;11.40;99.90;;;;;;6338498;22;19944;-70
2021/12/16 06:10:24;;;;;;;;;;;11.50;99.90;;;;;;6342718;22;20050;-70
2021/12/16 06:12:50;;;;;;;22.45;12.95;;;11.40;99.90;;;;;;6341219;22;19899;-69
2021/12/16 06:15:39;;;;;;;23.13;13.20;;;11.30;99.90;;;;;;6342583;22;19998;-71
2021/12/16 06:26:31;;;;;;;23.70;12.73;;;11.10;99.90;;;;;;6338094;22;20107;-72
2021/12/16 06:28:57;;;;;;;26.25;13.20;;;11.20;99.90;;;;;;6338807;22;20003;-71
2021/12/16 06:31:22;;;;;;;24.50;13.77;;;11.20;99.90;;;;;;6339656;22;20078;-71
2021/12/16 06:33:49;;;;;;;23.35;13.10;;;11.10;99.90;;;;;;6338386;22;20038;-71
2021/12/16 06:36:14;;;;;;;;;;;11.00;99.90;;;;;;6339970;22;20018;-69
2021/12/16 06:38:40;;;;;;;22.25;12.55;;;11.20;99.90;;;;;;6310746;22;19921;-70
2021/12/16 06:41:06;;;;;;;;;;;11.30;99.90;;;;;;6311463;22;20003;-72
2021/12/16 06:43:33;;;;;;;25.38;12.73;;;11.20;99.90;;;;;;6338523;22;19905;-73
2021/12/16 06:46:02;;;;;;;24.80;12.32;;;11.00;99.90;;;;;;6336300;22;20398;-69
2021/12/16 06:48:31;;;;;;;23.85;12.45;;;11.00;99.90;;;;;;6337747;22;20421;-71
2021/12/16 06:51:03;;;;;;;19.65;12.55;;;11.10;99.90;;;;;;6338068;22;19999;-70
2021/12/16 06:53:45;;;;;;;26.50;12.98;;;11.10;99.90;;;;;;6337420;22;20503;-70
2021/12/16 06:56:19;;;;;;;20.08;12.15;;;11.00;99.90;;;;;;6337478;22;20110;-71
2021/12/16 06:58:51;;;;;;;28.85;11.90;;;11.00;99.90;;;;;;6337671;22;19999;-71
2021/12/16 07:01:48;;;;;;;20.23;11.27;;;11.10;99.90;;;;;;6337503;22;20003;-70
2021/12/16 07:04:14;;;;;;;22.70;10.75;;;11.10;99.90;;;;;;6338999;22;19994;-71
2021/12/16 07:06:40;;;;;;;16.50;10.35;;;11.10;99.90;;;;;;6336549;22;20011;-71
2021/12/16 07:09:15;;;;;;;18.45;9.98;;;11.30;99.90;;;;;;6343067;22;20065;-70
2021/12/16 07:11:51;;;;;;;21.48;10.70;;;11.30;99.90;;;;;;6337957;22;20496;-71
2021/12/16 07:14:19;;;;;;;19.80;10.07;;;11.40;99.90;;;;;;6344030;22;20011;-70
2021/12/16 07:16:57;;;;;;;20.17;10.18;;;11.40;99.90;;;;;;6316590;22;20002;-71
2021/12/16 07:19:23;;;;;;;34.42;11.80;;;11.40;99.90;;;;;;6344468;22;20519;-71
2021/12/16 07:21:48;;;;;;;;;;;11.40;99.90;;;;;;6345969;22;20009;-71
2021/12/16 07:24:19;;;;;;;24.92;11.05;;;11.30;99.90;;;;;;6348033;22;19914;-72
2021/12/16 07:26:46;;;;;;;24.50;9.73;;;11.50;99.90;;;;;;6347025;22;20010;-70
2021/12/16 07:29:12;;;;;;;19.52;10.05;;;11.60;99.90;;;;;;6348137;22;20007;-71
2021/12/16 07:31:39;;;;;;;38.67;10.15;;;11.60;99.90;;;;;;6345663;22;20047;-72
2021/12/16 07:34:07;;;;;;;23.83;10.57;;;11.50;99.90;;;;;;6318666;22;19999;-71
2021/12/16 07:36:35;;;;;;;23.27;10.20;;;11.50;99.90;;;;;;6345518;22;20025;-70
2021/12/16 07:39:03;;;;;;;17.83;10.85;;;11.30;99.90;;;;;;6342450;22;20052;-73
2021/12/16 07:41:32;;;;;;;29.42;10.95;;;11.10;99.90;;;;;;6343092;22;20006;-70
2021/12/16 07:44:09;;;;;;;21.38;10.45;;;11.10;99.90;;;;;;6343599;22;20034;-72
2021/12/16 07:46:44;;;;;;;17.17;10.40;;;11.10;99.90;;;;;;6342334;22;20040;-72
2021/12/16 07:49:14;;;;;;;33.97;11.13;;;11.10;99.90;;;;;;6343749;22;20078;-70
2021/12/16 07:51:41;;;;;;;21.45;10.50;;;11.10;99.90;;;;;;6346478;22;20064;-71
2021/12/16 07:54:07;;;;;;;22.95;10.52;;;11.10;99.90;;;;;;6347613;22;20003;-72
2021/12/16 07:56:33;;;;;;;54.92;11.90;;;11.20;99.90;;;;;;6345057;22;20011;-75
2021/12/16 07:58:59;;;;;;;;;;;11.40;99.90;;;;;;6349465;22;20026;-71
2021/12/16 08:01:26;;;;;;;25.88;9.73;;;11.40;99.90;;;;;;6348277;22;20242;-72
2021/12/16 08:03:52;;;;;;;23.20;10.52;;;11.30;99.90;;;;;;6350294;22;19994;-72
2021/12/16 08:06:24;;;;;;;16.73;10.00;;;11.20;99.90;;;;;;6349886;22;20089;-71
2021/12/16 08:08:52;;;;;;;27.08;9.82;;;11.30;99.90;;;;;;6321773;22;20009;-73
2021/12/16 08:11:18;;;;;;;19.10;9.73;;;11.30;99.90;;;;;;6345580;22;20028;-73
2021/12/16 08:13:44;;;;;;;16.25;9.10;;;11.30;99.90;;;;;;6315195;22;20517;-71
2021/12/16 08:16:10;;;;;;;21.75;9.70;;;11.30;99.90;;;;;;6337048;22;20063;-72
2021/12/16 08:18:36;;;;;;;29.83;10.25;;;11.20;99.90;;;;;;6337323;22;20002;-71
2021/12/16 08:21:02;;;;;;;;;;;11.20;99.90;;;;;;6338206;22;20026;-72
2021/12/16 08:23:28;;;;;;;31.27;9.38;;;11.10;99.90;;;;;;6337602;22;19970;-72
2021/12/16 08:25:54;;;;;;;28.33;11.50;;;11.10;99.90;;;;;;6337345;22;20045;-73
2021/12/16 08:28:21;;;;;;;25.50;9.63;;;11.10;99.90;;;;;;6337386;22;20065;-72
2021/12/16 08:30:50;;;;;;;21.02;9.70;;;11.00;99.90;;;;;;6337920;22;20022;-73
2021/12/16 08:33:16;;;;;;;17.17;8.93;;;11.00;99.90;;;;;;6337249;22;20034;-71
2021/12/16 08:35:47;;;;;;;71.45;10.82;;;11.00;99.90;;;;;;6337504;22;20014;-72
2021/12/16 08:38:18;;;;;;;24.88;10.98;;;11.00;99.90;;;;;;6308297;22;20003;-72
2021/12/16 08:40:47;;;;;;;54.75;10.57;;;11.20;99.90;;;;;;6334350;22;20003;-72
2021/12/16 08:43:13;;;;;;;23.83;9.80;;;11.10;99.90;;;;;;6335998;22;20007;-72
2021/12/16 08:45:41;;;;;;;38.30;11.35;;;10.90;99.90;;;;;;6335818;22;20338;-70
2021/12/16 08:48:08;;;;;;;39.33;11.70;;;11.00;99.90;;;;;;6335891;22;20003;-73
2021/12/16 08:50:39;;;;;;;30.05;11.40;;;11.10;99.90;;;;;;6335862;22;19994;-71
2021/12/16 08:53:07;;;;;;;40.63;12.10;;;11.00;99.90;;;;;;6335557;22;20006;-70
2021/12/16 08:55:35;;;;;;;23.75;10.95;;;11.00;99.90;;;;;;6336449;22;20106;-72
2021/12/16 08:58:02;;;;;;;24.38;10.00;;;11.00;99.90;;;;;;6337490;22;20025;-72
2021/12/16 09:00:36;;;;;;;51.33;11.35;;;11.00;99.90;;;;;;6335153;22;19995;-71
2021/12/16 09:03:03;;;;;;;33.10;11.05;;;11.00;99.90;;;;;;6336523;22;20377;-71
2021/12/16 09:05:29;;;;;;;37.30;10.85;;;11.00;99.90;;;;;;6336504;22;20419;-71
2021/12/16 09:07:55;;;;;;;;;;;11.00;99.90;;;;;;6338032;22;20048;-72
2021/12/16 09:10:27;;;;;;;24.60;9.77;;;11.00;99.90;;;;;;6336023;22;19902;-71
2021/12/16 09:13:04;;;;;;;25.88;10.63;;;11.00;99.90;;;;;;6307707;22;20006;-72
2021/12/16 09:15:46;;;;;;;32.35;10.65;;;11.00;99.90;;;;;;6337406;22;20284;-72
2021/12/16 09:18:14;;;;;;;33.13;10.70;;;11.00;99.90;;;;;;6336855;22;20002;-70
2021/12/16 09:20:40;;;;;;;34.03;10.40;;;11.10;99.90;;;;;;6336733;22;19991;-71
2021/12/16 09:23:06;;;;;;;;;;;11.20;99.90;;;;;;6337490;22;19999;-71
2021/12/16 09:25:33;;;;;;;70.72;12.75;;;11.40;99.90;;;;;;6336872;22;19922;-69
2021/12/16 09:27:58;;;;;;;33.65;11.93;;;11.30;99.90;;;;;;6339025;22;20007;-72
2021/12/16 09:30:27;;;;;;;29.35;10.57;;;11.30;99.90;;;;;;6336595;22;20377;-70
2021/12/16 09:32:57;;;;;;;24.83;11.32;;;11.20;99.90;;;;;;6337367;22;19995;-72
2021/12/16 09:35:24;;;;;;;36.00;10.95;;;11.20;99.90;;;;;;6313574;22;20017;-72
2021/12/16 09:37:49;;;;;;;19.80;10.20;;;11.30;99.90;;;;;;6342233;22;20003;-71
2021/12/16 09:40:21;;;;;;;38.53;11.60;;;11.30;99.90;;;;;;6340659;22;20678;-72
2021/12/16 09:42:50;;;;;;;31.80;10.73;;;11.40;99.90;;;;;;6312802;22;20029;-72
2021/12/16 09:45:16;;;;;;;44.47;11.15;;;11.50;99.90;;;;;;6337079;22;20326;-70
2021/12/16 09:47:45;;;;;;;34.90;11.13;;;11.60;99.90;;;;;;6338184;22;20074;-72
2021/12/16 09:50:17;;;;;;;31.58;11.27;;;11.60;99.90;;;;;;6310281;22;19999;-71
2021/12/16 09:52:43;;;;;;;22.13;10.82;;;11.80;99.90;;;;;;6336417;22;20014;-70
2021/12/16 09:55:09;;;;;;;35.33;11.50;;;11.50;99.90;;;;;;6337493;22;20401;-71
2021/12/16 09:57:36;;;;;;;40.20;11.25;;;11.40;99.90;;;;;;6337212;22;20451;-70
2021/12/16 10:00:05;;;;;;;30.75;10.95;;;11.50;99.90;;;;;;6338358;22;20002;-72
2021/12/16 10:02:32;;;;;;;38.72;12.65;;;11.40;99.90;;;;;;6338993;22;20013;-71
2021/12/16 10:04:58;;;;;;;24.65;11.07;;;11.30;99.90;;;;;;6337941;22;19998;-71
2021/12/16 10:07:32;;;;;;;18.80;9.90;;;11.40;99.90;;;;;;6337881;22;20425;-71
2021/12/16 10:09:59;;;;;;;18.85;8.88;;;11.40;99.90;;;;;;6337156;22;20030;-71
2021/12/16 10:12:31;;;;;;;23.02;9.15;;;11.50;99.90;;;;;;6337167;22;20044;-71
2021/12/16 10:17:26;;;;;;;16.23;9.18;;;11.60;99.90;;;;;;6339101;22;20006;-70
2021/12/16 10:20:10;;;;;;;15.27;8.77;;;11.70;99.90;;;;;;6337999;22;19999;-70
2021/12/16 10:22:41;;;;;;;25.80;9.40;;;11.70;99.90;;;;;;6337635;22;20029;-71
2021/12/16 10:25:28;;;;;;;70.03;10.47;;;11.70;99.90;;;;;;6308147;22;20011;-71
2021/12/16 10:28:06;;;;;;;;;;;11.80;99.90;;;;;;6339324;22;20002;-72
2021/12/16 10:30:39;;;;;;;;;;;11.80;99.90;;;;;;6337521;22;19899;-70
2021/12/16 10:33:17;;;;;;;25.42;10.10;;;11.70;99.90;;;;;;6337024;22;19920;-71
2021/12/16 10:35:47;;;;;;;120.05;15.00;;;11.80;99.90;;;;;;6338200;22;20009;-71
2021/12/16 10:38:16;;;;;;;66.55;12.38;;;11.80;99.90;;;;;;6338236;22;20006;-72
2021/12/16 10:40:55;;;;;;;26.70;9.88;;;11.70;99.90;;;;;;6338422;22;20060;-71
2021/12/16 10:43:34;;;;;;;28.77;11.18;;;11.80;99.90;;;;;;6338956;22;20007;-72
2021/12/16 10:46:09;;;;;;;36.33;12.32;;;11.90;99.90;;;;;;6338473;22;20051;-72
2021/12/16 10:49:00;;;;;;;25.30;11.60;;;11.90;99.90;;;;;;6339764;22;20140;-71
2021/12/16 10:51:27;;;;;;;53.58;14.15;;;11.80;99.90;;;;;;6339133;22;20007;-70
2021/12/16 10:53:58;;;;;;;57.60;13.68;;;11.90;99.90;;;;;;6335671;22;20071;-71
2021/12/16 10:56:55;;;;;;;37.15;12.07;;;12.10;99.90;;;;;;6336243;22;20038;-71
2021/12/16 10:59:28;;;;;;;37.63;12.27;;;12.40;99.90;;;;;;6337441;22;20003;-71
2021/12/16 11:02:08;;;;;;;34.38;10.75;;;12.60;99.90;;;;;;6338493;22;20022;-71
2021/12/16 11:04:41;;;;;;;32.88;9.85;;;12.70;99.90;;;;;;6345349;22;19998;-71
2021/12/16 11:07:09;;;;;;;35.10;10.35;;;12.80;99.90;;;;;;6345358;22;20043;-70
2021/12/16 11:10:03;;;;;;;25.75;10.82;;;12.80;99.90;;;;;;6348713;22;20003;-70
2021/12/16 11:12:29;;;;;;;45.45;13.10;;;12.70;99.90;;;;;;6343838;22;20003;-75
2021/12/16 11:15:00;;;;;;;48.38;11.50;;;12.70;99.90;;;;;;6341892;22;20074;-71
2021/12/16 11:17:32;;;;;;;65.07;12.88;;;12.70;99.90;;;;;;6339986;22;19998;-71
2021/12/16 11:20:16;;;;;;;55.00;14.52;;;12.80;99.90;;;;;;6337191;22;20002;-70
2021/12/16 11:22:42;;;;;;;37.95;13.85;;;12.70;99.90;;;;;;6337789;22;20002;-71
2021/12/16 11:25:29;;;;;;;28.10;11.00;;;12.80;99.90;;;;;;6338065;22;20079;-73
2021/12/16 11:28:17;;;;;;;29.65;10.55;;;12.80;99.90;;;;;;6340755;22;20027;-70
2021/12/16 11:30:48;;;;;;;67.45;12.25;;;12.80;99.90;;;;;;6318336;22;20006;-71
2021/12/16 11:33:21;;;;;;;79.78;11.75;;;12.80;99.90;;;;;;6339075;22;20010;-71
2021/12/16 11:35:47;;;;;;;64.03;11.32;;;12.70;99.90;;;;;;6344221;22;20314;-71
2021/12/16 11:38:19;;;;;;;74.90;13.20;;;12.70;99.90;;;;;;6342475;22;20046;-67
2021/12/16 11:41:13;;;;;;;30.88;10.60;;;12.80;99.90;;;;;;6339772;22;19995;-71
2021/12/16 11:43:55;;;;;;;33.70;10.10;;;12.80;99.90;;;;;;6324257;22;20052;-72
2021/12/16 11:46:24;;;;;;;31.83;9.65;;;12.90;99.90;;;;;;6336229;22;20015;-71
2021/12/16 11:48:52;;;;;;;27.75;8.68;;;13.00;99.90;;;;;;6338907;22;20009;-71
2021/12/16 11:51:28;;;;;;;19.48;7.55;;;13.10;99.90;;;;;;6337967;22;19999;-72
2021/12/16 11:54:05;;;;;;;21.23;7.13;;;13.10;99.90;;;;;;6336387;22;20289;-73
2021/12/16 11:56:46;;;;;;;;;;;13.30;99.90;;;;;;6338876;22;20323;-71
2021/12/16 11:59:19;;;;;;;32.53;7.97;;;13.40;99.90;;;;;;6335673;22;19899;-72
2021/12/16 12:01:45;;;;;;;24.48;8.23;;;13.20;99.90;;;;;;6337318;22;20316;-72
2021/12/16 12:04:11;;;;;;;25.65;7.95;;;13.10;99.90;;;;;;6337999;22;20052;-70
2021/12/16 12:06:37;;;;;;;37.85;9.35;;;13.20;99.90;;;;;;6335870;22;20086;-72
2021/12/16 12:09:07;;;;;;;21.58;8.00;;;13.20;99.90;;;;;;6336693;22;19995;-69
2021/12/16 12:11:36;;;;;;;17.45;6.65;;;13.20;99.90;;;;;;6335676;22;20330;-70
2021/12/16 12:14:09;;;;;;;104.22;10.85;;;13.30;99.90;;;;;;6337086;22;20090;-73
2021/12/16 12:16:35;;;;;;;52.78;7.80;;;13.30;99.90;;;;;;6336839;22;19995;-71
2021/12/16 12:19:12;;;;;;;42.17;7.18;;;13.30;99.90;;;;;;6336983;22;20056;-73
2021/12/16 12:22:04;;;;;;;22.33;6.30;;;13.30;99.90;;;;;;6337916;22;20445;-72
2021/12/16 12:24:44;;;;;;;25.88;5.97;;;13.20;99.90;;;;;;6329938;22;20010;-71
2021/12/16 12:27:15;;;;;;;26.00;6.70;;;13.30;99.90;;;;;;6334017;22;20038;-69
2021/12/16 12:29:46;;;;;;;22.17;5.07;;;13.40;99.90;;;;;;6307712;22;20002;-71
2021/12/16 12:32:22;;;;;;;20.75;4.90;;;13.40;99.90;;;;;;6335722;22;20055;-71
2021/12/16 12:34:50;;;;;;;;;;;13.40;99.90;;;;;;6309681;22;20014;-70
2021/12/16 12:37:19;;;;;;;11.05;4.55;;;13.30;99.90;;;;;;6336084;22;19899;-71
2021/12/16 12:40:00;;;;;;;15.85;4.70;;;13.30;99.90;;;;;;6334224;22;20064;-71
2021/12/16 12:42:29;;;;;;;31.08;5.45;;;13.40;99.90;;;;;;6336355;22;20003;-70
2021/12/16 12:44:55;;;;;;;22.88;5.40;;;13.50;99.90;;;;;;6336757;22;20137;-71
2021/12/16 12:47:26;;;;;;;12.85;4.80;;;13.60;99.90;;;;;;6336026;22;20406;-71
2021/12/16 12:49:52;;;;;;;20.20;5.22;;;13.50;99.90;;;;;;6335502;22;20082;-68
2021/12/16 12:52:22;;;;;;;;;;;13.50;99.90;;;;;;6336426;22;20005;-69
2021/12/16 12:55:12;;;;;;;22.27;5.50;;;13.50;99.90;;;;;;6336896;22;19905;-71
2021/12/16 12:57:39;;;;;;;16.02;4.80;;;13.30;99.90;;;;;;6335388;22;20446;-70
2021/12/16 13:00:26;;;;;;;12.60;5.07;;;13.20;99.90;;;;;;6306483;22;20003;-70
2021/12/16 13:03:11;;;;;;;28.20;5.68;;;13.20;99.90;;;;;;6336586;22;20002;-71
2021/12/16 13:05:37;;;;;;;34.50;5.80;;;13.10;99.90;;;;;;6308580;22;20086;-71
2021/12/16 13:08:05;;;;;;;;;;;13.10;99.90;;;;;;6336185;22;20002;-71
2021/12/16 13:10:33;;;;;;;34.90;5.47;;;13.10;99.90;;;;;;6335155;22;19907;-70
2021/12/16 13:25:19;;;;;;;49.72;6.95;;;12.80;99.90;;;;;;6290593;22;19999;-71
2021/12/16 13:27:46;;;;;;;30.45;5.60;;;13.10;99.90;;;;;;6336279;22;20013;-71
2021/12/16 13:30:22;;;;;;;29.33;5.40;;;13.00;99.90;;;;;;6335741;22;20086;-71
2021/12/16 13:33:16;;;;;;;25.42;5.47;;;13.00;99.90;;;;;;6336143;22;20011;-72
2021/12/16 13:35:49;;;;;;;37.67;5.70;;;13.00;99.90;;;;;;6339606;22;20776;-71
2021/12/16 13:38:18;;;;;;;14.27;6.00;;;13.00;99.90;;;;;;6340089;22;19998;-72
2021/12/16 13:40:45;;;;;;;13.90;6.43;;;12.90;99.90;;;;;;6319313;22;20421;-71
2021/12/16 13:43:25;;;;;;;25.05;6.35;;;12.90;99.90;;;;;;6339732;22;20003;-72
2021/12/16 14:03:25;;;;;;;29.00;6.22;;;13.10;99.90;;;;;;6336363;22;20034;-71
2021/12/16 14:05:58;;;;;;;13.38;5.18;;;13.10;99.90;;;;;;6334671;22;20079;-72
2021/12/16 14:08:49;;;;;;;38.50;5.55;;;13.10;99.90;;;;;;6337720;22;20003;-70
2021/12/16 14:23:27;;;;;;;88.03;10.40;;;13.10;99.90;;;;;;6333676;22;20496;-71
2021/12/16 14:50:42;;;;;;;20.63;6.60;;;12.90;99.90;;;;;;6335458;22;20303;-71
2021/12/16 14:53:20;;;;;;;12.18;6.57;;;12.60;99.90;;;;;;6265750;22;20007;-72
2021/12/16 14:55:47;;;;;;;64.25;9.02;;;12.30;99.90;;;;;;6334841;22;20022;-72
2021/12/16 14:58:13;;;;;;;21.17;6.72;;;12.20;99.90;;;;;;6333295;22;20014;-70
2021/12/16 15:00:43;;;;;;;;;;;12.30;99.90;;;;;;6334745;22;20002;-71
2021/12/16 15:03:27;;;;;;;40.63;7.75;;;12.40;99.90;;;;;;6307144;22;19902;-70
2021/12/16 15:06:00;;;;;;;44.17;7.50;;;12.40;99.90;;;;;;6332130;22;19999;-72
2021/12/16 15:08:44;;;;;;;60.25;8.05;;;12.40;99.90;;;;;;6307585;22;20395;-71
2021/12/16 15:11:17;;;;;;;24.52;7.32;;;12.50;99.90;;;;;;6336374;22;20327;-71
2021/12/16 15:13:50;;;;;;;39.80;6.80;;;12.50;99.90;;;;;;6334934;22;20003;-71
2021/12/16 15:44:25;;;;;;;18.05;6.65;;;12.50;99.90;;;;;;6336586;22;20010;-72
2021/12/16 15:46:51;;;;;;;21.95;6.43;;;12.40;99.90;;;;;;6332444;22;20003;-72
2021/12/16 15:49:18;;;;;;;33.55;8.05;;;12.20;99.90;;;;;;6335518;22;20090;-73
2021/12/16 15:51:48;;;;;;;25.85;7.43;;;12.10;99.90;;;;;;6305366;22;20006;-73
2021/12/16 15:54:18;;;;;;;27.35;7.45;;;12.00;99.90;;;;;;6335190;22;20088;-73
2021/12/16 15:56:46;;;;;;;39.88;7.60;;;12.20;99.90;;;;;;6335699;22;20021;-70
2021/12/16 15:59:15;;;;;;;24.70;7.88;;;12.30;99.90;;;;;;6333891;22;20002;-72
2021/12/16 16:01:43;;;;;;;43.67;9.15;;;12.40;99.90;;;;;;6329964;22;20099;-71
2021/12/16 16:04:18;;;;;;;16.88;7.07;;;12.40;99.90;;;;;;6333559;22;20131;-72
2021/12/16 16:06:48;;;;;;;14.32;6.70;;;12.40;99.90;;;;;;6331209;22;20009;-71
2021/12/16 16:09:15;;;;;;;34.50;7.18;;;12.30;99.90;;;;;;6324513;22;19995;-69
2021/12/16 16:11:49;;;;;;;41.40;7.72;;;12.30;99.90;;;;;;6307125;22;20094;-72
2021/12/16 16:14:18;;;;;;;26.13;7.40;;;12.20;99.90;;;;;;6333525;22;20115;-70
2021/12/16 16:16:49;;;;;;;17.20;6.95;;;12.20;99.90;;;;;;6332658;22;19999;-71
2021/12/16 16:19:22;;;;;;;25.83;7.80;;;12.20;99.90;;;;;;6334972;22;19999;-73
2021/12/16 16:21:51;;;;;;;29.38;7.47;;;12.20;99.90;;;;;;6338163;22;20014;-72
2021/12/16 16:24:24;;;;;;;25.25;6.97;;;12.20;99.90;;;;;;6339020;22;19999;-72
2021/12/16 16:26:53;;;;;;;19.48;7.13;;;12.30;99.90;;;;;;6337242;22;20063;-72
2021/12/16 16:29:23;;;;;;;19.58;6.72;;;12.20;99.90;;;;;;6340759;22;20002;-73
2021/12/16 16:31:50;;;;;;;20.10;6.95;;;12.20;99.90;;;;;;6338931;22;20026;-73
2021/12/16 16:34:20;;;;;;;29.02;7.43;;;12.00;99.90;;;;;;6338129;22;20423;-73
2021/12/16 16:36:50;;;;;;;56.83;9.30;;;11.80;99.90;;;;;;6337644;22;20040;-74
2021/12/16 16:39:19;;;;;;;17.25;7.57;;;11.90;99.90;;;;;;6307353;22;20064;-73
2021/12/16 16:41:52;;;;;;;58.80;9.27;;;12.00;99.90;;;;;;6337965;22;20003;-72
2021/12/16 16:44:21;;;;;;;29.38;6.88;;;11.90;99.90;;;;;;6337462;22;19999;-73
2021/12/16 16:47:05;;;;;;;38.35;7.40;;;11.80;99.90;;;;;;6310715;22;20006;-72
2021/12/16 16:49:47;;;;;;;27.50;7.15;;;11.90;99.90;;;;;;6312574;22;20040;-72
2021/12/16 16:52:20;;;;;;;37.63;7.75;;;12.00;99.90;;;;;;6313058;22;20014;-72